This is the latest recevied weather packets stored in our database for station/object M0HPP-13. If no packets are shown the sender has not sent any weather packets the latest 10 day(s).
| Time | Temp. | Humidity | Pressure | Rain* | Wind** | Luminosity | Snow |
|---|---|---|---|---|---|---|---|
| 1777575019 | 15° C | 55% | 1019.8 hPa | 0 mm | - | 84 W/m² | - |
| 1777574419 | 15° C | 55% | 1019.6 hPa | 0 mm | - | 97 W/m² | - |
| 1777573819 | 15° C | 54% | 1019.6 hPa | 0 mm | - | 112 W/m² | - |
| 1777573219 | 15.56° C | 50% | 1019.7 hPa | 0 mm | - | 127 W/m² | - |
| 1777572619 | 15.56° C | 51% | 1019.7 hPa | 0 mm | - | 142 W/m² | - |
| 1777572019 | 16.11° C | 50% | 1019.8 hPa | 0 mm | - | 157 W/m² | - |
| 1777571419 | 16.11° C | 50% | 1019.9 hPa | 0 mm | - | 174 W/m² | - |
| 1777570819 | 16.11° C | 51% | 1020 hPa | 0 mm | - | 189 W/m² | - |
| 1777570219 | 15.56° C | 54% | 1019.9 hPa | 0 mm | - | 207 W/m² | - |
| 1777569619 | 16.11° C | 55% | 1020 hPa | 0 mm | - | 224 W/m² | - |
| 1777569019 | 16.67° C | 48% | 1020.2 hPa | 0 mm | - | 264 W/m² | - |
| 1777568419 | 17.22° C | 46% | 1020.1 hPa | 0 mm | - | 283 W/m² | - |
| 1777567819 | 17.22° C | 51% | 1020.2 hPa | 0 mm | - | 301 W/m² | - |
| 1777567219 | 16.67° C | 53% | 1020.3 hPa | 0 mm | - | 309 W/m² | - |
| 1777566619 | 17.22° C | 50% | 1020.4 hPa | 0 mm | - | 199 W/m² | - |
| 1777566019 | 17.22° C | 50% | 1020.6 hPa | 0 mm | - | 313 W/m² | - |
| 1777565419 | 17.22° C | 51% | 1020.7 hPa | 0 mm | - | 367 W/m² | - |
| 1777564819 | 17.22° C | 49% | 1020.9 hPa | 0 mm | - | 386 W/m² | - |
| 1777564219 | 16.67° C | 52% | 1020.9 hPa | 0 mm | - | 402 W/m² | - |
| 1777563619 | 16.67° C | 52% | 1021 hPa | 0 mm | - | 418 W/m² | - |
| 1777563019 | 16.67° C | 48% | 1021.3 hPa | 0 mm | - | 446 W/m² | - |
| 1777562419 | 16.67° C | 46% | 1021.3 hPa | 0 mm | - | 460 W/m² | - |
| 1777561819 | 16.11° C | 46% | 1021.3 hPa | 0 mm | - | 473 W/m² | - |
| 1777561219 | 16.11° C | 44% | 1021.4 hPa | 0 mm | - | 486 W/m² | - |
| 1777560619 | 16.11° C | 42% | 1021.6 hPa | 0 mm | - | 497 W/m² | - |
* Rain latest hour (hover to see other rain measurements)
** Current wind speed in m/s (hover to see current wind gust speed)